sensor_id;sensor_type;location;lat;lon;timestamp;pressure;altitude;pressure_sealevel;temperature;humidity
25869;BME280;13688;53.154;18.136;2023-05-14T00:01:00;101622.29;;;12.04;58.43
25869;BME280;13688;53.154;18.136;2023-05-14T00:06:22;101622.29;;;11.92;58.70
25869;BME280;13688;53.154;18.136;2023-05-14T00:11:45;101622.43;;;11.76;59.22
25869;BME280;13688;53.154;18.136;2023-05-14T00:17:07;101611.19;;;11.57;59.52
25869;BME280;13688;53.154;18.136;2023-05-14T00:22:30;101614.17;;;11.39;59.98
25869;BME280;13688;53.154;18.136;2023-05-14T00:27:53;101610.01;;;11.21;60.45
25869;BME280;13688;53.154;18.136;2023-05-14T00:33:15;101609.39;;;11.03;60.95
25869;BME280;13688;53.154;18.136;2023-05-14T00:38:38;101619.52;;;10.85;61.59
25869;BME280;13688;53.154;18.136;2023-05-14T00:44:01;101613.97;;;10.74;62.33
25869;BME280;13688;53.154;18.136;2023-05-14T00:49:23;101603.11;;;10.76;62.41
25869;BME280;13688;53.154;18.136;2023-05-14T00:54:47;101601.86;;;10.81;62.03
25869;BME280;13688;53.154;18.136;2023-05-14T01:00:11;101606.55;;;10.78;62.21
25869;BME280;13688;53.154;18.136;2023-05-14T01:11:32;101600.20;;;10.79;61.94
25869;BME280;13688;53.154;18.136;2023-05-14T01:17:16;101601.20;;;10.64;62.45
25869;BME280;13688;53.154;18.136;2023-05-14T01:22:42;101600.64;;;10.30;63.50
25869;BME280;13688;53.154;18.136;2023-05-14T01:33:39;101616.14;;;10.11;64.43
25869;BME280;13688;53.154;18.136;2023-05-14T01:39:03;101611.98;;;9.91;65.11
25869;BME280;13688;53.154;18.136;2023-05-14T01:44:27;101600.58;;;9.87;65.34
25869;BME280;13688;53.154;18.136;2023-05-14T01:49:49;101589.86;;;9.57;65.91
25869;BME280;13688;53.154;18.136;2023-05-14T01:55:12;101591.53;;;9.44;66.74
25869;BME280;13688;53.154;18.136;2023-05-14T02:00:35;101583.75;;;9.69;66.79
25869;BME280;13688;53.154;18.136;2023-05-14T02:05:58;101582.22;;;9.65;66.27
25869;BME280;13688;53.154;18.136;2023-05-14T02:11:20;101576.00;;;9.79;66.76
25869;BME280;13688;53.154;18.136;2023-05-14T02:16:42;101587.05;;;9.89;66.33
25869;BME280;13688;53.154;18.136;2023-05-14T02:22:05;101581.88;;;9.86;66.18
25869;BME280;13688;53.154;18.136;2023-05-14T02:27:27;101578.48;;;9.82;66.41
25869;BME280;13688;53.154;18.136;2023-05-14T02:32:50;101579.14;;;9.71;66.70
25869;BME280;13688;53.154;18.136;2023-05-14T02:38:12;101571.84;;;9.59;67.16
25869;BME280;13688;53.154;18.136;2023-05-14T02:43:35;101565.29;;;9.49;67.46
25869;BME280;13688;53.154;18.136;2023-05-14T02:48:57;101563.25;;;9.38;68.24
25869;BME280;13688;53.154;18.136;2023-05-14T02:54:20;101569.38;;;9.40;68.31
25869;BME280;13688;53.154;18.136;2023-05-14T02:59:42;101558.64;;;9.40;68.49
25869;BME280;13688;53.154;18.136;2023-05-14T03:05:05;101562.00;;;9.44;68.53
25869;BME280;13688;53.154;18.136;2023-05-14T03:10:27;101561.42;;;9.39;68.61
25869;BME280;13688;53.154;18.136;2023-05-14T03:15:50;101560.91;;;9.32;69.14
25869;BME280;13688;53.154;18.136;2023-05-14T03:21:13;101566.57;;;9.28;70.17
25869;BME280;13688;53.154;18.136;2023-05-14T03:26:35;101564.84;;;9.27;71.24
25869;BME280;13688;53.154;18.136;2023-05-14T03:31:58;101564.75;;;9.28;71.59
25869;BME280;13688;53.154;18.136;2023-05-14T03:37:21;101561.97;;;9.30;71.44
25869;BME280;13688;53.154;18.136;2023-05-14T03:42:43;101564.91;;;9.25;71.31
25869;BME280;13688;53.154;18.136;2023-05-14T03:48:06;101553.31;;;9.25;71.18
25869;BME280;13688;53.154;18.136;2023-05-14T03:53:28;101553.62;;;9.34;71.23
25869;BME280;13688;53.154;18.136;2023-05-14T03:58:51;101554.67;;;9.62;70.46
25869;BME280;13688;53.154;18.136;2023-05-14T04:04:13;101547.32;;;9.80;69.39
25869;BME280;13688;53.154;18.136;2023-05-14T04:09:36;101549.34;;;9.90;68.77
25869;BME280;13688;53.154;18.136;2023-05-14T04:14:58;101550.78;;;10.10;68.17
25869;BME280;13688;53.154;18.136;2023-05-14T04:20:22;101543.53;;;10.26;67.67
25869;BME280;13688;53.154;18.136;2023-05-14T04:25:44;101536.50;;;10.38;67.25
25869;BME280;13688;53.154;18.136;2023-05-14T04:31:06;101538.77;;;10.58;66.96
25869;BME280;13688;53.154;18.136;2023-05-14T04:36:29;101533.42;;;10.85;65.92
25869;BME280;13688;53.154;18.136;2023-05-14T04:41:51;101543.94;;;11.03;65.34
25869;BME280;13688;53.154;18.136;2023-05-14T04:47:13;101542.03;;;11.17;65.12
25869;BME280;13688;53.154;18.136;2023-05-14T04:52:36;101539.71;;;11.38;64.53
25869;BME280;13688;53.154;18.136;2023-05-14T04:57:59;101535.23;;;11.52;63.76
25869;BME280;13688;53.154;18.136;2023-05-14T05:03:21;101540.33;;;11.69;63.17
25869;BME280;13688;53.154;18.136;2023-05-14T05:08:44;101537.78;;;11.80;62.57
25869;BME280;13688;53.154;18.136;2023-05-14T05:14:08;101534.22;;;11.92;61.96
25869;BME280;13688;53.154;18.136;2023-05-14T05:19:30;101527.52;;;12.11;61.53
25869;BME280;13688;53.154;18.136;2023-05-14T05:24:53;101523.39;;;12.30;61.36
25869;BME280;13688;53.154;18.136;2023-05-14T05:30:17;101516.98;;;12.44;60.83
25869;BME280;13688;53.154;18.136;2023-05-14T05:35:40;101525.25;;;12.67;60.34
25869;BME280;13688;53.154;18.136;2023-05-14T05:41:02;101524.80;;;12.97;60.05
25869;BME280;13688;53.154;18.136;2023-05-14T05:46:24;101516.28;;;13.38;59.19
25869;BME280;13688;53.154;18.136;2023-05-14T05:51:47;101514.43;;;13.85;58.20
25869;BME280;13688;53.154;18.136;2023-05-14T05:57:10;101509.92;;;14.19;57.01
25869;BME280;13688;53.154;18.136;2023-05-14T06:02:34;101510.02;;;14.40;55.75
25869;BME280;13688;53.154;18.136;2023-05-14T06:07:56;101504.44;;;14.75;54.62
25869;BME280;13688;53.154;18.136;2023-05-14T06:13:19;101504.80;;;15.13;53.59
25869;BME280;13688;53.154;18.136;2023-05-14T06:18:42;101504.72;;;15.57;52.09
25869;BME280;13688;53.154;18.136;2023-05-14T06:24:05;101496.02;;;15.74;51.26
25869;BME280;13688;53.154;18.136;2023-05-14T06:29:29;101500.55;;;15.94;50.72
25869;BME280;13688;53.154;18.136;2023-05-14T06:34:51;101492.46;;;16.04;50.59
25869;BME280;13688;53.154;18.136;2023-05-14T06:40:13;101495.84;;;15.96;50.42
25869;BME280;13688;53.154;18.136;2023-05-14T06:45:36;101496.79;;;15.86;50.85
25869;BME280;13688;53.154;18.136;2023-05-14T06:50:58;101494.98;;;15.96;52.57
25869;BME280;13688;53.154;18.136;2023-05-14T06:56:21;101505.46;;;16.10;52.07
25869;BME280;13688;53.154;18.136;2023-05-14T07:01:44;101507.40;;;16.29;52.28
25869;BME280;13688;53.154;18.136;2023-05-14T07:07:06;101491.48;;;16.55;52.36
25869;BME280;13688;53.154;18.136;2023-05-14T07:12:29;101487.89;;;16.45;52.21
25869;BME280;13688;53.154;18.136;2023-05-14T07:17:52;101489.95;;;16.62;52.55
25869;BME280;13688;53.154;18.136;2023-05-14T07:23:15;101487.37;;;16.60;52.88
25869;BME280;13688;53.154;18.136;2023-05-14T07:28:37;101474.84;;;16.98;53.33
25869;BME280;13688;53.154;18.136;2023-05-14T07:34:00;101480.72;;;17.23;52.81
25869;BME280;13688;53.154;18.136;2023-05-14T07:39:23;101472.08;;;17.56;51.50
25869;BME280;13688;53.154;18.136;2023-05-14T07:44:45;101462.62;;;17.80;50.10
25869;BME280;13688;53.154;18.136;2023-05-14T07:50:09;101451.89;;;18.15;47.36
25869;BME280;13688;53.154;18.136;2023-05-14T07:55:33;101445.88;;;18.39;45.68
25869;BME280;13688;53.154;18.136;2023-05-14T08:00:57;101438.19;;;18.52;46.04
25869;BME280;13688;53.154;18.136;2023-05-14T08:06:20;101432.80;;;18.70;44.97
25869;BME280;13688;53.154;18.136;2023-05-14T08:11:42;101430.85;;;18.80;44.67
25869;BME280;13688;53.154;18.136;2023-05-14T08:17:05;101421.90;;;19.06;43.96
25869;BME280;13688;53.154;18.136;2023-05-14T08:22:27;101409.86;;;19.34;42.43
25869;BME280;13688;53.154;18.136;2023-05-14T08:27:50;101413.95;;;19.56;42.23
25869;BME280;13688;53.154;18.136;2023-05-14T08:33:12;101404.16;;;19.71;41.09
25869;BME280;13688;53.154;18.136;2023-05-14T08:38:34;101399.79;;;19.87;40.92
25869;BME280;13688;53.154;18.136;2023-05-14T08:44:22;101388.62;;;20.06;36.93
25869;BME280;13688;53.154;18.136;2023-05-14T08:50:25;101382.42;;;20.38;35.81
25869;BME280;13688;53.154;18.136;2023-05-14T08:55:20;101379.95;;;20.69;34.94
25869;BME280;13688;53.154;18.136;2023-05-14T09:00:43;101382.53;;;20.95;33.50
25869;BME280;13688;53.154;18.136;2023-05-14T09:06:06;101377.23;;;21.26;34.27
25869;BME280;13688;53.154;18.136;2023-05-14T09:11:28;101357.73;;;21.37;32.48
25869;BME280;13688;53.154;18.136;2023-05-14T09:16:53;101358.53;;;21.62;32.17
25869;BME280;13688;53.154;18.136;2023-05-14T09:22:17;101348.05;;;21.74;32.16
25869;BME280;13688;53.154;18.136;2023-05-14T09:27:44;101351.94;;;21.80;31.44
25869;BME280;13688;53.154;18.136;2023-05-14T09:33:07;101347.23;;;22.36;30.79
25869;BME280;13688;53.154;18.136;2023-05-14T09:38:31;101344.33;;;22.83;27.80
25869;BME280;13688;53.154;18.136;2023-05-14T09:43:55;101329.85;;;22.97;27.25
25869;BME280;13688;53.154;18.136;2023-05-14T09:49:17;101331.59;;;23.42;26.54
25869;BME280;13688;53.154;18.136;2023-05-14T09:54:40;101317.61;;;23.37;25.19
25869;BME280;13688;53.154;18.136;2023-05-14T10:00:03;101304.36;;;23.56;25.56
25869;BME280;13688;53.154;18.136;2023-05-14T10:05:27;101318.29;;;23.84;25.20
25869;BME280;13688;53.154;18.136;2023-05-14T10:10:54;101312.98;;;24.54;24.04
25869;BME280;13688;53.154;18.136;2023-05-14T10:16:39;101292.19;;;24.31;22.80
25869;BME280;13688;53.154;18.136;2023-05-14T10:22:06;101280.21;;;24.17;22.60
25869;BME280;13688;53.154;18.136;2023-05-14T10:27:26;101285.59;;;24.25;22.51
25869;BME280;13688;53.154;18.136;2023-05-14T10:33:02;101274.22;;;25.61;22.09
25869;BME280;13688;53.154;18.136;2023-05-14T10:38:33;101268.86;;;25.12;21.38
25869;BME280;13688;53.154;18.136;2023-05-14T10:43:56;101264.41;;;24.40;22.20
25869;BME280;13688;53.154;18.136;2023-05-14T10:49:20;101253.91;;;22.75;23.97
25869;BME280;13688;53.154;18.136;2023-05-14T10:54:50;101252.20;;;24.07;22.64
25869;BME280;13688;53.154;18.136;2023-05-14T11:00:19;101237.73;;;23.47;23.00
25869;BME280;13688;53.154;18.136;2023-05-14T11:05:45;101241.70;;;22.63;24.61
25869;BME280;13688;53.154;18.136;2023-05-14T11:11:07;101230.72;;;23.15;23.42
25869;BME280;13688;53.154;18.136;2023-05-14T11:16:32;101227.88;;;22.94;24.16
25869;BME280;13688;53.154;18.136;2023-05-14T11:21:55;101229.42;;;22.36;24.69
25869;BME280;13688;53.154;18.136;2023-05-14T11:27:18;101223.02;;;21.66;25.84
25869;BME280;13688;53.154;18.136;2023-05-14T11:32:46;101217.95;;;21.55;26.68
25869;BME280;13688;53.154;18.136;2023-05-14T11:38:12;101207.23;;;21.77;26.05
25869;BME280;13688;53.154;18.136;2023-05-14T11:43:33;101203.63;;;22.30;25.69
25869;BME280;13688;53.154;18.136;2023-05-14T11:48:56;101197.31;;;21.98;25.18
25869;BME280;13688;53.154;18.136;2023-05-14T11:54:19;101192.77;;;21.60;24.96
25869;BME280;13688;53.154;18.136;2023-05-14T11:59:43;101191.59;;;21.62;25.25
25869;BME280;13688;53.154;18.136;2023-05-14T12:05:11;101179.25;;;22.35;25.00
25869;BME280;13688;53.154;18.136;2023-05-14T12:10:40;101168.84;;;22.83;24.97
25869;BME280;13688;53.154;18.136;2023-05-14T12:16:02;101153.69;;;22.57;24.46
25869;BME280;13688;53.154;18.136;2023-05-14T12:21:26;101149.59;;;22.39;25.15
25869;BME280;13688;53.154;18.136;2023-05-14T12:26:50;101147.20;;;22.21;25.14
25869;BME280;13688;53.154;18.136;2023-05-14T12:32:15;101143.89;;;22.78;24.97
25869;BME280;13688;53.154;18.136;2023-05-14T12:37:40;101143.91;;;22.93;24.52
25869;BME280;13688;53.154;18.136;2023-05-14T12:43:02;101137.89;;;22.07;24.53
25869;BME280;13688;53.154;18.136;2023-05-14T12:48:25;101137.75;;;21.78;25.32
25869;BME280;13688;53.154;18.136;2023-05-14T12:53:47;101126.62;;;21.79;25.52
25869;BME280;13688;53.154;18.136;2023-05-14T12:59:10;101123.28;;;22.15;25.36
25869;BME280;13688;53.154;18.136;2023-05-14T13:04:32;101128.81;;;22.30;25.43
25869;BME280;13688;53.154;18.136;2023-05-14T13:09:55;101114.47;;;23.52;23.13
25869;BME280;13688;53.154;18.136;2023-05-14T13:15:17;101105.63;;;23.72;22.94
25869;BME280;13688;53.154;18.136;2023-05-14T13:20:41;101107.20;;;22.64;23.67
25869;BME280;13688;53.154;18.136;2023-05-14T13:26:04;101095.28;;;22.42;25.00
25869;BME280;13688;53.154;18.136;2023-05-14T13:31:26;101091.08;;;22.17;25.33
25869;BME280;13688;53.154;18.136;2023-05-14T13:36:49;101085.36;;;22.04;25.29
25869;BME280;13688;53.154;18.136;2023-05-14T13:42:11;101084.95;;;21.92;25.41
25869;BME280;13688;53.154;18.136;2023-05-14T13:47:33;101074.08;;;21.84;25.71
25869;BME280;13688;53.154;18.136;2023-05-14T13:52:57;101068.82;;;22.64;24.99
25869;BME280;13688;53.154;18.136;2023-05-14T13:58:20;101075.70;;;24.54;23.59
25869;BME280;13688;53.154;18.136;2023-05-14T14:03:42;101057.73;;;24.30;22.52
25869;BME280;13688;53.154;18.136;2023-05-14T14:09:04;101059.25;;;23.40;24.31
25869;BME280;13688;53.154;18.136;2023-05-14T14:14:27;101054.84;;;23.25;24.11
25869;BME280;13688;53.154;18.136;2023-05-14T14:19:49;101047.09;;;22.63;24.79
25869;BME280;13688;53.154;18.136;2023-05-14T14:25:13;101042.62;;;22.76;24.99
25869;BME280;13688;53.154;18.136;2023-05-14T14:30:37;101037.74;;;22.42;25.33
25869;BME280;13688;53.154;18.136;2023-05-14T14:35:59;101034.02;;;23.52;24.09
25869;BME280;13688;53.154;18.136;2023-05-14T14:41:22;101023.77;;;23.39;24.65
25869;BME280;13688;53.154;18.136;2023-05-14T14:46:44;101015.97;;;24.41;24.43
25869;BME280;13688;53.154;18.136;2023-05-14T14:52:07;101013.19;;;25.37;22.55
25869;BME280;13688;53.154;18.136;2023-05-14T14:57:29;101018.73;;;24.89;22.62
25869;BME280;13688;53.154;18.136;2023-05-14T15:02:51;101005.80;;;25.57;21.61
25869;BME280;13688;53.154;18.136;2023-05-14T15:08:14;100998.97;;;25.14;21.72
25869;BME280;13688;53.154;18.136;2023-05-14T15:13:40;101008.80;;;23.41;23.59
25869;BME280;13688;53.154;18.136;2023-05-14T15:19:03;101002.64;;;22.67;24.82
25869;BME280;13688;53.154;18.136;2023-05-14T15:24:26;100992.40;;;22.40;24.97
25869;BME280;13688;53.154;18.136;2023-05-14T15:29:48;100984.06;;;22.18;25.34
25869;BME280;13688;53.154;18.136;2023-05-14T15:35:12;100983.02;;;22.19;26.03
25869;BME280;13688;53.154;18.136;2023-05-14T15:40:35;100976.95;;;21.94;26.24
25869;BME280;13688;53.154;18.136;2023-05-14T15:45:59;100983.27;;;21.95;26.53
25869;BME280;13688;53.154;18.136;2023-05-14T15:51:21;100972.00;;;22.13;26.44
25869;BME280;13688;53.154;18.136;2023-05-14T15:56:44;100963.13;;;22.11;26.53
25869;BME280;13688;53.154;18.136;2023-05-14T16:02:06;100952.60;;;22.95;26.02
25869;BME280;13688;53.154;18.136;2023-05-14T16:07:30;100945.69;;;22.48;25.91
25869;BME280;13688;53.154;18.136;2023-05-14T16:12:52;100943.56;;;22.14;27.14
25869;BME280;13688;53.154;18.136;2023-05-14T16:18:15;100943.33;;;21.86;27.75
25869;BME280;13688;53.154;18.136;2023-05-14T16:23:38;100940.55;;;21.56;28.52
25869;BME280;13688;53.154;18.136;2023-05-14T16:29:00;100934.48;;;21.46;28.94
25869;BME280;13688;53.154;18.136;2023-05-14T16:34:23;100926.42;;;21.30;29.21
25869;BME280;13688;53.154;18.136;2023-05-14T16:39:45;100926.61;;;21.28;29.34
25869;BME280;13688;53.154;18.136;2023-05-14T16:45:09;100922.02;;;21.21;29.65
25869;BME280;13688;53.154;18.136;2023-05-14T16:50:32;100921.36;;;21.19;29.80
25869;BME280;13688;53.154;18.136;2023-05-14T16:55:54;100915.48;;;21.07;29.78
25869;BME280;13688;53.154;18.136;2023-05-14T17:01:17;100916.01;;;21.02;29.71
25869;BME280;13688;53.154;18.136;2023-05-14T17:06:39;100920.02;;;20.92;30.05
25869;BME280;13688;53.154;18.136;2023-05-14T17:12:02;100919.59;;;20.80;30.45
25869;BME280;13688;53.154;18.136;2023-05-14T17:17:24;100915.02;;;20.72;30.70
25869;BME280;13688;53.154;18.136;2023-05-14T17:22:47;100917.51;;;20.59;31.08
25869;BME280;13688;53.154;18.136;2023-05-14T17:28:09;100908.32;;;20.52;31.35
25869;BME280;13688;53.154;18.136;2023-05-14T17:33:33;100912.31;;;20.33;31.86
25869;BME280;13688;53.154;18.136;2023-05-14T17:38:55;100913.08;;;20.19;32.27
25869;BME280;13688;53.154;18.136;2023-05-14T17:44:18;100908.54;;;19.95;34.10
25869;BME280;13688;53.154;18.136;2023-05-14T17:49:40;100908.28;;;19.65;34.00
25869;BME280;13688;53.154;18.136;2023-05-14T17:55:03;100909.14;;;19.50;34.54
25869;BME280;13688;53.154;18.136;2023-05-14T18:00:26;100913.41;;;19.36;34.85
25869;BME280;13688;53.154;18.136;2023-05-14T18:05:50;100910.17;;;19.16;35.90
25869;BME280;13688;53.154;18.136;2023-05-14T18:11:13;100915.28;;;18.95;36.47
25869;BME280;13688;53.154;18.136;2023-05-14T18:16:37;100913.70;;;18.68;37.28
25869;BME280;13688;53.154;18.136;2023-05-14T18:22:00;100911.23;;;18.48;38.13
25869;BME280;13688;53.154;18.136;2023-05-14T18:27:22;100908.31;;;18.34;38.17
25869;BME280;13688;53.154;18.136;2023-05-14T18:32:47;100907.22;;;18.18;38.34
25869;BME280;13688;53.154;18.136;2023-05-14T18:38:09;100898.09;;;17.93;39.63
25869;BME280;13688;53.154;18.136;2023-05-14T18:43:32;100906.98;;;17.69;40.89
25869;BME280;13688;53.154;18.136;2023-05-14T18:48:55;100903.86;;;17.38;41.34
25869;BME280;13688;53.154;18.136;2023-05-14T18:54:17;100905.36;;;17.15;41.32
25869;BME280;13688;53.154;18.136;2023-05-14T18:59:39;100904.92;;;17.02;41.53
25869;BME280;13688;53.154;18.136;2023-05-14T19:05:02;100901.97;;;16.95;41.87
25869;BME280;13688;53.154;18.136;2023-05-14T19:10:24;100914.23;;;16.81;42.42
25869;BME280;13688;53.154;18.136;2023-05-14T19:15:47;100907.34;;;16.59;43.46
25869;BME280;13688;53.154;18.136;2023-05-14T19:21:10;100912.91;;;16.40;43.97
25869;BME280;13688;53.154;18.136;2023-05-14T19:26:33;100911.25;;;16.29;44.23
25869;BME280;13688;53.154;18.136;2023-05-14T19:31:55;100913.06;;;16.11;44.47
25869;BME280;13688;53.154;18.136;2023-05-14T19:37:18;100913.68;;;16.05;44.49
25869;BME280;13688;53.154;18.136;2023-05-14T19:42:41;100912.88;;;15.95;44.49
25869;BME280;13688;53.154;18.136;2023-05-14T19:48:04;100906.79;;;15.83;45.04
25869;BME280;13688;53.154;18.136;2023-05-14T19:53:29;100902.49;;;15.81;44.91
25869;BME280;13688;53.154;18.136;2023-05-14T19:58:52;100888.70;;;15.74;44.95
25869;BME280;13688;53.154;18.136;2023-05-14T20:04:14;100897.41;;;15.58;45.23
25869;BME280;13688;53.154;18.136;2023-05-14T20:09:36;100883.91;;;15.39;45.76
25869;BME280;13688;53.154;18.136;2023-05-14T20:14:59;100883.23;;;15.27;45.97
25869;BME280;13688;53.154;18.136;2023-05-14T20:20:22;100875.26;;;15.26;45.83
25869;BME280;13688;53.154;18.136;2023-05-14T20:25:45;100878.23;;;15.23;46.06
25869;BME280;13688;53.154;18.136;2023-05-14T20:31:10;100872.83;;;15.13;47.45
25869;BME280;13688;53.154;18.136;2023-05-14T20:36:32;100866.89;;;14.61;50.28
25869;BME280;13688;53.154;18.136;2023-05-14T20:41:55;100869.59;;;14.71;51.01
25869;BME280;13688;53.154;18.136;2023-05-14T20:47:18;100862.98;;;14.44;51.36
25869;BME280;13688;53.154;18.136;2023-05-14T20:52:42;100864.52;;;14.27;52.00
25869;BME280;13688;53.154;18.136;2023-05-14T20:58:05;100864.62;;;14.07;52.11
25869;BME280;13688;53.154;18.136;2023-05-14T21:03:29;100865.55;;;13.86;52.80
25869;BME280;13688;53.154;18.136;2023-05-14T21:08:52;100851.64;;;13.60;53.35
25869;BME280;13688;53.154;18.136;2023-05-14T21:14:15;100844.28;;;13.62;53.47
25869;BME280;13688;53.154;18.136;2023-05-14T21:19:37;100839.31;;;13.67;53.42
25869;BME280;13688;53.154;18.136;2023-05-14T21:25:00;100824.66;;;13.70;53.32
25869;BME280;13688;53.154;18.136;2023-05-14T21:30:23;100827.11;;;13.73;53.16
25869;BME280;13688;53.154;18.136;2023-05-14T21:35:46;100826.69;;;13.78;53.09
25869;BME280;13688;53.154;18.136;2023-05-14T21:41:09;100826.80;;;13.66;53.27
25869;BME280;13688;53.154;18.136;2023-05-14T21:46:31;100828.89;;;13.53;53.05
25869;BME280;13688;53.154;18.136;2023-05-14T21:51:54;100819.28;;;13.39;54.06
25869;BME280;13688;53.154;18.136;2023-05-14T21:57:16;100818.38;;;13.29;54.94
25869;BME280;13688;53.154;18.136;2023-05-14T22:02:40;100813.17;;;13.16;55.71
25869;BME280;13688;53.154;18.136;2023-05-14T22:08:03;100804.83;;;13.20;55.69
25869;BME280;13688;53.154;18.136;2023-05-14T22:13:26;100798.48;;;13.09;56.41
25869;BME280;13688;53.154;18.136;2023-05-14T22:18:49;100793.23;;;13.08;56.53
25869;BME280;13688;53.154;18.136;2023-05-14T22:24:13;100780.20;;;12.92;57.24
25869;BME280;13688;53.154;18.136;2023-05-14T22:29:36;100775.80;;;12.70;58.31
25869;BME280;13688;53.154;18.136;2023-05-14T22:34:59;100767.30;;;12.54;58.96
25869;BME280;13688;53.154;18.136;2023-05-14T22:40:21;100763.16;;;12.50;59.27
25869;BME280;13688;53.154;18.136;2023-05-14T22:45:44;100756.85;;;12.60;58.59
25869;BME280;13688;53.154;18.136;2023-05-14T22:51:08;100752.79;;;12.66;58.31
25869;BME280;13688;53.154;18.136;2023-05-14T22:56:30;100747.45;;;12.76;58.03
25869;BME280;13688;53.154;18.136;2023-05-14T23:01:53;100733.88;;;12.87;57.71
25869;BME280;13688;53.154;18.136;2023-05-14T23:07:15;100728.20;;;12.90;57.61
25869;BME280;13688;53.154;18.136;2023-05-14T23:12:38;100716.97;;;13.15;56.45
25869;BME280;13688;53.154;18.136;2023-05-14T23:18:01;100714.91;;;13.29;55.61
25869;BME280;13688;53.154;18.136;2023-05-14T23:23:24;100706.41;;;13.33;55.26
25869;BME280;13688;53.154;18.136;2023-05-14T23:28:46;100697.03;;;13.37;54.90
25869;BME280;13688;53.154;18.136;2023-05-14T23:34:08;100682.87;;;13.55;54.17
25869;BME280;13688;53.154;18.136;2023-05-14T23:39:31;100678.33;;;13.65;53.57
25869;BME280;13688;53.154;18.136;2023-05-14T23:44:53;100668.94;;;13.69;53.45
25869;BME280;13688;53.154;18.136;2023-05-14T23:50:16;100664.54;;;13.78;53.11
25869;BME280;13688;53.154;18.136;2023-05-14T23:55:39;100654.17;;;13.73;53.40
